Time;durP1;ratioP1;P1;durP2;ratioP2;P2;SDS_P1;SDS_P2;PMS_P1;PMS_P2;Temp;Humidity;BMP_temperature;BMP_pressure;BME280_temperature;BME280_humidity;BME280_pressure;Samples;Min_cycle;Max_cycle;Signal;HPM_P1;HPM_P2
2024/02/13 00:02:26;;;;;;;0.50;0.50;;;5.10;99.90;;;;;;6133756;23;20056;-80
2024/02/13 00:04:54;;;;;;;0.43;0.43;;;5.00;99.90;;;;;;6134223;23;20013;-83
2024/02/13 00:07:19;;;;;;;0.47;0.47;;;4.90;99.90;;;;;;6188508;23;20013;-83
2024/02/13 00:09:52;;;;;;;0.85;0.85;;;4.80;99.90;;;;;;6149227;23;20084;-83
2024/02/13 00:12:17;;;;;;;0.90;0.90;;;5.50;99.90;;;;;;6157974;23;20479;-83
2024/02/13 00:14:44;;;;;;;0.47;0.47;;;4.70;99.90;;;;;;6136225;23;20024;-84
2024/02/13 00:17:10;;;;;;;0.85;0.85;;;4.70;99.90;;;;;;6161439;23;20012;-83
2024/02/13 00:19:36;;;;;;;0.65;0.60;;;4.70;99.90;;;;;;6185380;23;20543;-82
2024/02/13 00:22:02;;;;;;;0.60;0.60;;;4.70;99.90;;;;;;6161833;23;20122;-83
2024/02/13 00:24:27;;;;;;;0.52;0.52;;;4.70;99.90;;;;;;6137213;23;20401;-84
2024/02/13 00:26:53;;;;;;;0.50;0.50;;;5.50;99.90;;;;;;6159410;23;20017;-83
2024/02/13 00:29:19;;;;;;;;;;;4.60;99.90;;;;;;6158120;23;20398;-82
2024/02/13 00:31:45;;;;;;;0.40;0.40;;;4.50;99.90;;;;;;6183634;23;19916;-83
2024/02/13 00:34:11;;;;;;;0.40;0.40;;;4.50;99.90;;;;;;6159097;23;20056;-82
2024/02/13 00:36:37;;;;;;;0.60;0.60;;;4.40;99.90;;;;;;6157584;23;20021;-83
2024/02/13 00:39:03;;;;;;;;;;;4.40;99.90;;;;;;6108213;23;20019;-82
2024/02/13 00:41:29;;;;;;;0.70;0.70;;;4.60;99.90;;;;;;6158484;23;19995;-82
2024/02/13 00:43:54;;;;;;;0.65;0.65;;;4.30;99.90;;;;;;6157095;23;20067;-82
2024/02/13 00:46:21;;;;;;;1.35;1.35;;;4.30;99.90;;;;;;6159371;23;20013;-82
2024/02/13 00:48:47;;;;;;;0.82;0.82;;;4.70;99.90;;;;;;6184036;23;20013;-82
2024/02/13 00:51:15;;;;;;;0.60;0.60;;;4.20;99.90;;;;;;6155364;23;20059;-81
2024/02/13 00:53:41;;;;;;;1.05;1.05;;;4.40;99.90;;;;;;6156798;23;20075;-81
2024/02/13 00:56:07;;;;;;;0.60;0.60;;;4.20;99.90;;;;;;6157023;23;20124;-82
2024/02/13 00:58:36;;;;;;;1.55;1.45;;;4.30;99.90;;;;;;6157536;23;20100;-82
2024/02/13 01:01:03;;;;;;;0.60;0.60;;;4.20;99.90;;;;;;6156805;23;20413;-83
2024/02/13 01:03:29;;;;;;;0.65;0.65;;;4.20;99.90;;;;;;6158047;23;20088;-82
2024/02/13 01:05:55;;;;;;;0.63;0.63;;;5.10;99.90;;;;;;6156962;23;20344;-82
2024/02/13 01:08:24;;;;;;;0.80;0.80;;;4.70;99.90;;;;;;6183830;23;20059;-82
2024/02/13 01:10:53;;;;;;;0.50;0.50;;;4.20;99.90;;;;;;6108136;23;20017;-81
2024/02/13 01:13:18;;;;;;;0.57;0.57;;;4.30;99.90;;;;;;6151841;23;20036;-82
2024/02/13 01:15:44;;;;;;;0.90;0.90;;;4.20;99.90;;;;;;6132203;23;20455;-81
2024/02/13 01:18:10;;;;;;;0.70;0.70;;;4.20;99.90;;;;;;6184299;23;20021;-82
2024/02/13 01:20:36;;;;;;;0.60;0.60;;;4.30;99.90;;;;;;6131695;23;20034;-82
2024/02/13 01:23:02;;;;;;;0.52;0.52;;;;;;;;;;6183364;23;20017;-81
2024/02/13 01:25:30;;;;;;;1.02;1.02;;;4.20;99.90;;;;;;6160100;23;20017;-83
2024/02/13 01:27:57;;;;;;;1.50;1.50;;;4.40;99.90;;;;;;6134062;23;20071;-82
2024/02/13 01:30:23;;;;;;;0.52;0.52;;;4.10;99.90;;;;;;6157785;23;20032;-82
2024/02/13 01:32:49;;;;;;;0.82;0.82;;;4.40;99.90;;;;;;6184767;23;20025;-82
2024/02/13 01:35:18;;;;;;;0.60;0.60;;;4.20;99.90;;;;;;6158133;23;20130;-81
2024/02/13 01:37:44;;;;;;;0.70;0.70;;;5.20;99.90;;;;;;6158318;23;20017;-80
2024/02/13 01:40:10;;;;;;;0.77;0.77;;;4.20;99.90;;;;;;6184639;23;20828;-81
2024/02/13 01:42:38;;;;;;;2.33;1.95;;;4.30;99.90;;;;;;6184291;23;20044;-81
2024/02/13 01:45:09;;;;;;;2.78;1.77;;;4.40;99.90;;;;;;6183545;23;20015;-81
2024/02/13 01:47:36;;;;;;;0.85;0.85;;;4.30;99.90;;;;;;6156985;23;20017;-81
2024/02/13 01:50:06;;;;;;;1.98;1.77;;;4.40;99.90;;;;;;6157613;23;20032;-81
2024/02/13 01:52:33;;;;;;;0.60;0.60;;;4.40;99.90;;;;;;6184477;23;20021;-81
2024/02/13 01:55:00;;;;;;;0.70;0.70;;;4.40;99.90;;;;;;6132683;23;20052;-81
2024/02/13 01:57:29;;;;;;;0.70;0.70;;;5.00;99.90;;;;;;6156611;23;20024;-81
2024/02/13 01:59:56;;;;;;;0.50;0.50;;;4.40;99.90;;;;;;6157810;23;20020;-81
2024/02/13 02:02:23;;;;;;;0.68;0.68;;;4.40;99.90;;;;;;6158677;23;20044;-81
2024/02/13 02:04:50;;;;;;;0.60;0.60;;;4.40;99.90;;;;;;6159528;23;20013;-80
2024/02/13 02:07:16;;;;;;;0.95;0.95;;;4.50;99.90;;;;;;6157536;23;20092;-81
2024/02/13 02:09:43;;;;;;;1.10;1.10;;;4.50;99.90;;;;;;6158426;23;20067;-81
2024/02/13 02:12:11;;;;;;;1.00;1.00;;;4.50;99.90;;;;;;6109516;23;20064;-80
2024/02/13 02:14:38;;;;;;;3.38;3.22;;;4.50;99.90;;;;;;6159512;23;20017;-81
2024/02/13 02:17:08;;;;;;;0.65;0.65;;;4.50;99.90;;;;;;6133513;23;20067;-81
2024/02/13 02:19:34;;;;;;;0.93;0.93;;;4.90;99.90;;;;;;6159715;23;20151;-81
2024/02/13 02:22:00;;;;;;;0.60;0.60;;;4.40;99.90;;;;;;6185186;23;20068;-81
2024/02/13 02:24:26;;;;;;;0.60;0.60;;;4.40;99.90;;;;;;6134436;23;20020;-81
2024/02/13 02:26:53;;;;;;;0.50;0.50;;;4.40;99.90;;;;;;6133588;23;20346;-81
2024/02/13 02:29:18;;;;;;;0.50;0.50;;;4.40;99.90;;;;;;6158152;23;20021;-82
2024/02/13 02:31:44;;;;;;;2.35;2.25;;;4.40;99.90;;;;;;6185786;23;20023;-82
2024/02/13 02:34:10;;;;;;;0.90;0.90;;;4.40;99.90;;;;;;6159099;23;20024;-82
2024/02/13 02:36:36;;;;;;;0.60;0.60;;;5.00;99.90;;;;;;6158166;23;20064;-83
2024/02/13 02:39:04;;;;;;;0.90;0.90;;;4.30;99.90;;;;;;6186109;23;20023;-82
2024/02/13 02:41:30;;;;;;;0.57;0.57;;;4.30;99.90;;;;;;6161652;23;20084;-83
2024/02/13 02:43:55;;;;;;;0.43;0.43;;;4.30;99.90;;;;;;6161048;23;20012;-84
2024/02/13 02:46:21;;;;;;;1.00;1.00;;;4.30;99.90;;;;;;6136418;23;20051;-82
2024/02/13 02:48:47;;;;;;;0.52;0.52;;;5.20;99.90;;;;;;6160732;23;20068;-83
2024/02/13 02:51:12;;;;;;;0.60;0.60;;;4.30;99.90;;;;;;6158176;23;20020;-81
2024/02/13 02:53:38;;;;;;;2.97;0.93;;;4.30;99.90;;;;;;6158891;23;20056;-81
2024/02/13 02:56:04;;;;;;;0.70;0.70;;;4.30;99.90;;;;;;6133898;23;20013;-81
2024/02/13 02:58:30;;;;;;;1.25;1.25;;;4.30;99.90;;;;;;6182946;23;20366;-82
2024/02/13 03:00:55;;;;;;;0.60;0.60;;;4.30;99.90;;;;;;6158214;23;20017;-82
2024/02/13 03:03:21;;;;;;;0.60;0.60;;;4.30;99.90;;;;;;6159302;23;20036;-81
2024/02/13 03:05:47;;;;;;;1.05;0.82;;;4.30;99.90;;;;;;6158876;23;20044;-82
2024/02/13 03:08:15;;;;;;;0.73;0.73;;;4.30;99.90;;;;;;6158321;23;20013;-82
2024/02/13 03:10:41;;;;;;;1.10;1.10;;;4.20;99.90;;;;;;6158800;23;20717;-82
2024/02/13 03:13:08;;;;;;;1.05;1.05;;;4.30;99.90;;;;;;6133410;23;20027;-82
2024/02/13 03:15:34;;;;;;;0.60;0.60;;;4.20;99.90;;;;;;6186050;23;20044;-82
2024/02/13 03:18:03;;;;;;;0.55;0.55;;;4.10;99.90;;;;;;6158654;23;20013;-83
2024/02/13 03:20:29;;;;;;;0.60;0.60;;;4.10;99.90;;;;;;6158667;23;20024;-83
2024/02/13 03:22:55;;;;;;;;;;;4.20;99.90;;;;;;6134884;23;20045;-82
2024/02/13 03:25:21;;;;;;;0.52;0.52;;;4.20;99.90;;;;;;6160214;23;19919;-82
2024/02/13 03:27:46;;;;;;;0.60;0.60;;;4.20;99.90;;;;;;6132692;23;20471;-81
2024/02/13 03:30:14;;;;;;;0.60;0.60;;;4.20;99.90;;;;;;6183514;23;20009;-83
2024/02/13 03:32:40;;;;;;;0.80;0.80;;;4.20;99.90;;;;;;6158999;23;20052;-81
2024/02/13 03:35:06;;;;;;;1.73;1.67;;;4.10;99.90;;;;;;6185565;23;20445;-82
2024/02/13 03:37:32;;;;;;;0.70;0.70;;;4.10;99.90;;;;;;6158074;23;20079;-82
2024/02/13 03:39:57;;;;;;;1.17;1.08;;;4.10;99.90;;;;;;6158873;23;20017;-82
2024/02/13 03:42:23;;;;;;;8.25;1.20;;;4.40;99.90;;;;;;6184625;23;20009;-83
2024/02/13 03:44:49;;;;;;;1.85;1.73;;;4.10;99.90;;;;;;6133545;23;20064;-83
2024/02/13 03:47:14;;;;;;;0.70;0.70;;;4.00;99.90;;;;;;6158663;23;20024;-83
2024/02/13 03:49:41;;;;;;;1.70;1.38;;;4.00;99.90;;;;;;6183417;23;20047;-83
2024/02/13 03:52:06;;;;;;;0.80;0.80;;;4.10;99.90;;;;;;6157529;23;20021;-82
2024/02/13 03:54:32;;;;;;;1.20;1.17;;;4.80;99.90;;;;;;6133392;23;20028;-81
2024/02/13 03:57:00;;;;;;;0.50;0.50;;;4.70;99.90;;;;;;6158058;23;20017;-82
2024/02/13 03:59:29;;;;;;;0.88;0.88;;;4.00;99.90;;;;;;6157898;23;20013;-82
2024/02/13 04:01:55;;;;;;;1.33;1.23;;;4.00;99.90;;;;;;6183507;23;20021;-82
2024/02/13 04:04:21;;;;;;;0.95;0.95;;;4.10;99.90;;;;;;6133333;23;20012;-81
2024/02/13 04:06:47;;;;;;;1.23;1.23;;;4.00;99.90;;;;;;6156724;23;20068;-82
2024/02/13 04:09:13;;;;;;;0.70;0.70;;;3.90;99.90;;;;;;6183754;23;20020;-82
2024/02/13 04:11:39;;;;;;;;;;;3.90;99.90;;;;;;6156390;23;20095;-79
2024/02/13 04:14:04;;;;;;;0.52;0.52;;;3.90;99.90;;;;;;6130995;23;19951;-79
2024/02/13 04:16:30;;;;;;;0.90;0.90;;;3.90;99.90;;;;;;6130552;23;20023;-78
2024/02/13 04:18:56;;;;;;;0.40;0.40;;;3.90;99.90;;;;;;6155528;23;20357;-78
2024/02/13 04:21:22;;;;;;;1.02;1.02;;;3.90;99.90;;;;;;6180173;23;20473;-78
2024/02/13 04:23:49;;;;;;;0.60;0.60;;;4.50;99.90;;;;;;6154620;23;20017;-78
2024/02/13 04:26:18;;;;;;;0.88;0.88;;;5.00;99.90;;;;;;6181053;23;20040;-79
2024/02/13 04:28:44;;;;;;;1.50;1.45;;;3.80;99.90;;;;;;6154823;23;20021;-78
2024/02/13 04:31:10;;;;;;;0.70;0.70;;;3.80;99.90;;;;;;6154805;23;20461;-78
2024/02/13 04:33:36;;;;;;;1.88;1.77;;;5.00;99.90;;;;;;6154909;23;20028;-78
2024/02/13 04:36:03;;;;;;;1.10;1.10;;;3.90;99.90;;;;;;6155111;23;20111;-79
2024/02/13 04:38:31;;;;;;;1.65;1.35;;;3.90;99.90;;;;;;6154876;23;20017;-78
2024/02/13 04:40:57;;;;;;;0.70;0.70;;;3.90;99.90;;;;;;6154824;23;20338;-78
2024/02/13 04:43:22;;;;;;;;;;;4.30;99.90;;;;;;6129678;23;20069;-79
2024/02/13 04:45:48;;;;;;;0.75;0.75;;;3.90;99.90;;;;;;6154070;23;19916;-79
2024/02/13 04:48:14;;;;;;;0.95;0.95;;;3.90;99.90;;;;;;6153688;23;20028;-78
2024/02/13 04:50:39;;;;;;;3.45;3.25;;;5.20;99.90;;;;;;6152487;23;20059;-77
2024/02/13 04:53:05;;;;;;;0.73;0.73;;;3.90;99.90;;;;;;6128945;23;20388;-78
2024/02/13 04:55:34;;;;;;;0.50;0.50;;;4.60;99.90;;;;;;6127787;23;20055;-78
2024/02/13 04:58:01;;;;;;;0.65;0.65;;;4.00;99.90;;;;;;6154041;23;20021;-78
2024/02/13 05:00:29;;;;;;;0.60;0.60;;;4.00;99.90;;;;;;6179951;23;20025;-77
2024/02/13 05:08:24;;;;;;;1.60;1.50;;;4.00;99.90;;;;;;6154474;23;20013;-77
2024/02/13 05:10:50;;;;;;;1.40;1.30;;;4.30;99.90;;;;;;6130096;23;20499;-78
2024/02/13 05:13:17;;;;;;;0.70;0.70;;;4.00;99.90;;;;;;6154880;23;20021;-78
2024/02/13 05:15:43;;;;;;;0.90;0.90;;;4.70;99.90;;;;;;6153264;23;20024;-78
2024/02/13 05:18:09;;;;;;;1.20;1.20;;;4.90;99.90;;;;;;6155021;23;20025;-78
2024/02/13 05:20:35;;;;;;;0.77;0.77;;;4.80;99.90;;;;;;6153601;23;20021;-82
2024/02/13 05:23:01;;;;;;;;;;;4.00;99.90;;;;;;6156471;23;20012;-82
2024/02/13 05:25:27;;;;;;;1.10;1.10;;;3.90;99.90;;;;;;6156388;23;19923;-82
2024/02/13 05:27:53;;;;;;;0.98;0.98;;;4.00;99.90;;;;;;6183159;23;20025;-82
2024/02/13 05:30:20;;;;;;;1.52;1.42;;;4.00;99.90;;;;;;6157386;23;20115;-83
2024/02/13 05:32:46;;;;;;;3.03;2.38;;;3.90;99.90;;;;;;6155541;23;20136;-82
2024/02/13 05:35:12;;;;;;;;;;;3.90;99.90;;;;;;6132337;23;20025;-81
2024/02/13 05:37:38;;;;;;;0.65;0.65;;;3.90;99.90;;;;;;6157891;23;19916;-81
2024/02/13 05:40:05;;;;;;;0.95;0.93;;;3.90;99.90;;;;;;6133928;23;20765;-82
2024/02/13 05:42:31;;;;;;;0.70;0.70;;;4.00;99.90;;;;;;6186736;23;20020;-81
2024/02/13 05:44:57;;;;;;;1.15;1.15;;;4.00;99.90;;;;;;6135466;23;20329;-82
2024/02/13 05:47:29;;;;;;;3.13;2.92;;;4.00;99.90;;;;;;6186412;23;20078;-81
2024/02/13 05:49:58;;;;;;;0.80;0.80;;;4.60;99.90;;;;;;6187094;23;20020;-82
2024/02/13 05:52:24;;;;;;;2.13;1.92;;;4.10;99.90;;;;;;6110441;23;20041;-81
2024/02/13 05:54:49;;;;;;;0.77;0.77;;;4.30;99.90;;;;;;6159387;23;20075;-82
2024/02/13 05:57:15;;;;;;;1.23;1.23;;;4.10;99.90;;;;;;6158648;23;20021;-81
2024/02/13 05:59:41;;;;;;;0.73;0.73;;;4.10;99.90;;;;;;6158094;23;20023;-81
2024/02/13 06:02:08;;;;;;;0.98;0.68;;;4.90;99.90;;;;;;6158664;23;20017;-81
2024/02/13 06:04:35;;;;;;;1.50;1.40;;;4.10;99.90;;;;;;6160778;23;20060;-82
2024/02/13 06:07:02;;;;;;;1.20;1.20;;;4.10;99.90;;;;;;6159177;23;20036;-83
2024/02/13 06:09:28;;;;;;;2.35;2.15;;;4.10;99.90;;;;;;6157711;23;20158;-82
2024/02/13 06:11:55;;;;;;;4.55;1.73;;;4.20;99.90;;;;;;6110597;23;20029;-80
2024/02/13 06:14:21;;;;;;;0.95;0.95;;;4.10;99.90;;;;;;6110067;23;20027;-80
2024/02/13 06:16:47;;;;;;;0.70;0.70;;;4.10;99.90;;;;;;6157027;23;20017;-81
2024/02/13 06:19:12;;;;;;;1.85;1.45;;;4.10;99.90;;;;;;6185201;23;20020;-81
2024/02/13 06:21:38;;;;;;;0.68;0.68;;;5.00;99.90;;;;;;6159116;23;20013;-81
2024/02/13 06:24:04;;;;;;;;;;;4.20;99.90;;;;;;6137879;23;20377;-82
2024/02/13 06:26:30;;;;;;;0.50;0.50;;;4.20;99.90;;;;;;6159263;23;19920;-82
2024/02/13 06:28:56;;;;;;;0.88;0.80;;;4.60;99.90;;;;;;6161391;23;20034;-82
2024/02/13 06:31:22;;;;;;;1.08;1.08;;;4.10;99.90;;;;;;6135890;23;20076;-78
2024/02/13 06:33:47;;;;;;;1.17;1.00;;;4.20;99.90;;;;;;6182902;23;20017;-77
2024/02/13 06:36:15;;;;;;;0.63;0.63;;;4.40;99.90;;;;;;6182593;23;20187;-77
2024/02/13 06:38:41;;;;;;;1.42;1.42;;;4.60;99.90;;;;;;6155330;23;20017;-78
2024/02/13 06:41:10;;;;;;;0.63;0.63;;;4.00;99.90;;;;;;6156583;23;20024;-77
2024/02/13 06:43:36;;;;;;;2.58;2.40;;;4.10;99.90;;;;;;6182200;23;20013;-78
2024/02/13 06:46:02;;;;;;;0.95;0.95;;;4.10;99.90;;;;;;6155434;23;20469;-78
2024/02/13 06:48:28;;;;;;;;;;;4.10;99.90;;;;;;6131440;23;20044;-78
2024/02/13 06:50:54;;;;;;;0.50;0.50;;;4.10;99.90;;;;;;6181456;23;19926;-78
2024/02/13 06:53:19;;;;;;;1.48;1.38;;;4.30;99.90;;;;;;6130125;23;20116;-78
2024/02/13 06:55:45;;;;;;;1.05;0.90;;;4.10;99.90;;;;;;6181583;23;20041;-78
2024/02/13 06:58:13;;;;;;;0.60;0.60;;;4.70;99.90;;;;;;6154436;23;20064;-78
2024/02/13 07:00:39;;;;;;;3.60;2.03;;;4.00;99.90;;;;;;6130757;23;20504;-78
2024/02/13 07:03:05;;;;;;;0.70;0.70;;;5.50;99.90;;;;;;6182818;23;20021;-77
2024/02/13 07:05:31;;;;;;;1.13;1.13;;;4.00;99.90;;;;;;6182302;23;20013;-77
2024/02/13 07:07:56;;;;;;;1.15;1.13;;;4.00;99.90;;;;;;6151976;23;20765;-78
2024/02/13 07:10:22;;;;;;;0.50;0.50;;;3.90;99.90;;;;;;6179529;23;20059;-77
2024/02/13 07:12:48;;;;;;;2.90;1.75;;;3.60;99.90;;;;;;6128619;23;20016;-78
2024/02/13 07:15:14;;;;;;;0.60;0.60;;;4.40;99.90;;;;;;6183121;23;20013;-77
2024/02/13 07:17:40;;;;;;;0.77;0.77;;;4.00;99.90;;;;;;6156397;23;20405;-78
2024/02/13 07:20:06;;;;;;;1.23;1.23;;;4.10;99.90;;;;;;6131550;23;20044;-79
2024/02/13 07:22:32;;;;;;;0.70;0.70;;;4.00;99.90;;;;;;6181383;23;20535;-77
2024/02/13 07:24:58;;;;;;;0.57;0.57;;;4.00;99.90;;;;;;6106576;23;20017;-78
2024/02/13 07:27:25;;;;;;;0.73;0.73;;;4.00;99.90;;;;;;6155745;23;20021;-78
2024/02/13 07:29:54;;;;;;;3.10;2.90;;;4.00;99.90;;;;;;6156058;23;20076;-78
2024/02/13 07:32:20;;;;;;;5.00;4.60;;;4.10;99.90;;;;;;6183158;23;20017;-78
2024/02/13 07:34:47;;;;;;;0.90;0.88;;;4.10;99.90;;;;;;6155635;23;20091;-80
2024/02/13 07:37:13;;;;;;;0.93;0.90;;;4.20;99.90;;;;;;6183263;23;20082;-78
2024/02/13 07:39:40;;;;;;;0.90;0.90;;;4.20;99.90;;;;;;6181810;23;20005;-79
2024/02/13 07:42:07;;;;;;;0.95;0.95;;;4.30;99.90;;;;;;6135809;23;20029;-82
2024/02/13 07:44:33;;;;;;;2.47;2.38;;;4.30;99.90;;;;;;6167839;23;20097;-83
2024/02/13 07:46:59;;;;;;;0.70;0.70;;;4.30;99.90;;;;;;6193488;23;20017;-81
2024/02/13 07:49:25;;;;;;;0.68;0.68;;;4.30;99.90;;;;;;6140234;23;20024;-80
2024/02/13 07:51:53;;;;;;;1.50;1.40;;;4.40;99.90;;;;;;6141292;23;20021;-80
2024/02/13 07:54:21;;;;;;;0.93;0.93;;;4.40;99.90;;;;;;6191132;23;20023;-80
2024/02/13 07:56:48;;;;;;;1.70;1.67;;;4.60;99.90;;;;;;6165738;23;20021;-81
2024/02/13 07:59:14;;;;;;;1.00;1.00;;;4.50;99.90;;;;;;6192904;23;20044;-82
2024/02/13 08:01:43;;;;;;;0.90;0.90;;;4.50;99.90;;;;;;6164379;23;20020;-81
2024/02/13 08:04:09;;;;;;;0.80;0.80;;;4.40;99.90;;;;;;6156818;23;20009;-79
2024/02/13 08:06:37;;;;;;;1.08;1.08;;;5.90;99.90;;;;;;6158261;23;20532;-78
2024/02/13 08:09:06;;;;;;;4.50;3.72;;;4.50;99.90;;;;;;6140868;23;20358;-80
2024/02/13 08:11:32;;;;;;;2.10;1.38;;;4.40;99.90;;;;;;6168050;23;20028;-80
2024/02/13 08:13:58;;;;;;;0.80;0.80;;;4.60;99.90;;;;;;6168661;23;20024;-81
2024/02/13 08:16:29;;;;;;;4.63;2.15;;;5.50;99.90;;;;;;6169249;23;20468;-82
2024/02/13 08:18:55;;;;;;;0.88;0.88;;;4.70;99.90;;;;;;6167093;23;20028;-81
2024/02/13 08:21:22;;;;;;;0.55;0.55;;;4.70;99.90;;;;;;6191790;23;20043;-81
2024/02/13 08:23:47;;;;;;;0.60;0.60;;;4.80;99.90;;;;;;6191293;23;20528;-81
2024/02/13 08:26:13;;;;;;;1.00;1.00;;;4.80;99.90;;;;;;6139892;23;20043;-83
2024/02/13 08:28:43;;;;;;;2.05;1.95;;;5.50;99.90;;;;;;6192255;23;20024;-81
2024/02/13 08:31:09;;;;;;;0.68;0.68;;;4.90;99.90;;;;;;6164570;23;20406;-81
2024/02/13 08:33:35;;;;;;;;;;;5.80;99.90;;;;;;6139614;23;20013;-81
2024/02/13 08:36:02;;;;;;;0.65;0.65;;;5.00;99.90;;;;;;6189837;23;20332;-81
2024/02/13 08:38:27;;;;;;;0.88;0.85;;;5.10;99.90;;;;;;6164790;23;20017;-80
2024/02/13 08:40:54;;;;;;;1.27;1.27;;;5.40;99.90;;;;;;6164091;23;20020;-83
2024/02/13 08:43:21;;;;;;;1.05;1.05;;;5.20;99.90;;;;;;6193721;23;20059;-82
2024/02/13 08:45:47;;;;;;;0.80;0.80;;;5.30;99.90;;;;;;6164784;23;20013;-81
2024/02/13 08:48:14;;;;;;;0.85;0.85;;;5.30;99.90;;;;;;6163553;23;20096;-80
2024/02/13 08:50:41;;;;;;;0.95;0.60;;;5.40;99.90;;;;;;6190099;23;20015;-81
2024/02/13 08:53:06;;;;;;;0.90;0.90;;;6.30;99.90;;;;;;6164623;23;20017;-82
2024/02/13 08:55:32;;;;;;;0.75;0.75;;;5.50;99.90;;;;;;6191026;23;20095;-82
2024/02/13 08:57:58;;;;;;;0.60;0.60;;;5.70;99.90;;;;;;6166231;23;20021;-81
2024/02/13 09:00:26;;;;;;;1.85;1.70;;;5.80;99.90;;;;;;6166607;23;20055;-82
2024/02/13 09:02:51;;;;;;;0.65;0.65;;;5.70;99.90;;;;;;6190152;23;20075;-81
2024/02/13 09:05:17;;;;;;;0.90;0.90;;;5.80;99.90;;;;;;6162531;23;20009;-82
2024/02/13 09:07:43;;;;;;;1.70;1.60;;;5.80;99.90;;;;;;6162189;23;20013;-81
2024/02/13 09:10:11;;;;;;;0.52;0.52;;;5.80;99.90;;;;;;6139120;23;20017;-81
2024/02/13 09:12:45;;;;;;;3.53;3.22;;;5.90;99.90;;;;;;6191836;23;20024;-81
2024/02/13 09:15:12;;;;;;;6.78;6.13;;;5.90;99.90;;;;;;6193142;23;20036;-82
2024/02/13 09:17:43;;;;;;;0.80;0.80;;;5.90;99.90;;;;;;6140303;23;20021;-81
2024/02/13 09:20:16;;;;;;;0.70;0.70;;;5.90;99.90;;;;;;6163319;23;20053;-80
2024/02/13 09:22:45;;;;;;;1.23;1.10;;;6.00;99.90;;;;;;6165831;23;20341;-80
2024/02/13 09:25:12;;;;;;;0.82;0.82;;;6.00;99.90;;;;;;6192603;23;20009;-82
2024/02/13 09:27:40;;;;;;;1.20;1.20;;;6.10;99.90;;;;;;6165160;23;20353;-81
2024/02/13 09:30:10;;;;;;;1.30;1.20;;;6.00;99.90;;;;;;6164430;23;20017;-82
2024/02/13 09:32:37;;;;;;;0.90;0.90;;;6.20;99.90;;;;;;6164945;23;20017;-81
2024/02/13 09:35:07;;;;;;;0.98;0.98;;;6.30;99.90;;;;;;6191904;23;20021;-81
2024/02/13 09:37:42;;;;;;;0.73;0.73;;;6.30;99.90;;;;;;6165557;23;20108;-82
2024/02/13 09:40:15;;;;;;;9.35;0.90;;;6.40;99.90;;;;;;6192063;23;20079;-80
2024/02/13 09:42:42;;;;;;;1.10;1.10;;;6.60;99.90;;;;;;6188471;23;20013;-81
2024/02/13 09:45:19;;;;;;;0.55;0.55;;;6.50;99.90;;;;;;6187044;23;20020;-79
2024/02/13 09:47:45;;;;;;;0.95;0.95;;;6.60;99.90;;;;;;6136876;23;20017;-81
2024/02/13 09:50:14;;;;;;;1.00;1.00;;;6.60;99.90;;;;;;6161269;23;20084;-80
2024/02/13 09:52:47;;;;;;;0.38;0.38;;;6.70;99.90;;;;;;6162126;23;20442;-80
2024/02/13 09:55:14;;;;;;;0.50;0.50;;;6.70;99.90;;;;;;6161315;23;20021;-80
2024/02/13 09:57:41;;;;;;;1.65;1.05;;;6.70;99.90;;;;;;6161234;23;20451;-79
2024/02/13 10:00:08;;;;;;;0.73;0.73;;;6.80;99.90;;;;;;6187408;23;20044;-80
2024/02/13 10:02:39;;;;;;;0.90;0.90;;;6.80;99.90;;;;;;6140113;23;20021;-79
2024/02/13 10:05:09;;;;;;;0.63;0.63;;;6.80;99.90;;;;;;6164733;23;20043;-78
2024/02/13 10:07:40;;;;;;;0.60;0.60;;;6.90;99.90;;;;;;6162134;23;20069;-82
2024/02/13 10:10:12;;;;;;;1.20;1.13;;;6.90;99.90;;;;;;6187730;23;20009;-79
2024/02/13 10:13:00;;;;;;;7.05;2.13;;;6.90;99.90;;;;;;6162522;23;20017;-79
2024/02/13 10:15:44;;;;;;;1.40;1.38;;;6.90;99.90;;;;;;6188455;23;20021;-79
2024/02/13 10:18:13;;;;;;;0.50;0.50;;;7.00;99.90;;;;;;6163259;23;20476;-79
2024/02/13 10:20:42;;;;;;;1.08;1.08;;;7.10;99.90;;;;;;6160391;23;20021;-80
2024/02/13 10:23:13;;;;;;;0.80;0.77;;;7.20;99.90;;;;;;6112903;23;20324;-81
2024/02/13 10:25:39;;;;;;;1.20;0.93;;;7.30;99.90;;;;;;6140475;23;20009;-81
2024/02/13 10:28:11;;;;;;;0.68;0.68;;;7.30;99.90;;;;;;6139321;23;20193;-81
2024/02/13 10:30:38;;;;;;;2.30;2.10;;;7.40;99.90;;;;;;6165137;23;20017;-80
2024/02/13 10:33:08;;;;;;;0.30;0.30;;;7.60;99.90;;;;;;6162956;23;20032;-80
2024/02/13 10:35:34;;;;;;;4.78;1.40;;;7.60;99.90;;;;;;6192541;23;20020;-79
2024/02/13 10:38:00;;;;;;;1.17;1.17;;;7.80;99.90;;;;;;6164521;23;20079;-79
2024/02/13 10:40:27;;;;;;;0.45;0.45;;;7.90;99.90;;;;;;6163753;23;20013;-81
2024/02/13 10:42:59;;;;;;;0.60;0.60;;;8.00;99.90;;;;;;6165075;23;20072;-80
2024/02/13 10:45:30;;;;;;;0.63;0.63;;;8.10;99.90;;;;;;6162118;23;20070;-80
2024/02/13 10:48:17;;;;;;;0.50;0.50;;;8.10;99.90;;;;;;6190850;23;20009;-80
2024/02/13 10:50:44;;;;;;;0.47;0.47;;;8.10;99.90;;;;;;6190444;23;20358;-80
2024/02/13 10:53:10;;;;;;;;;;;8.20;99.90;;;;;;6188868;23;20048;-80
2024/02/13 10:55:39;;;;;;;0.70;0.70;;;8.20;99.90;;;;;;6189795;23;20233;-80
2024/02/13 10:58:06;;;;;;;0.55;0.55;;;8.20;99.90;;;;;;6164329;23;20028;-80
2024/02/13 11:00:33;;;;;;;0.80;0.80;;;8.20;99.90;;;;;;6139396;23;20025;-79
2024/02/13 11:02:59;;;;;;;0.50;0.50;;;8.20;99.90;;;;;;6160771;23;20020;-79
2024/02/13 11:05:27;;;;;;;;;;;8.10;99.90;;;;;;6161555;23;20036;-80
2024/02/13 11:07:55;;;;;;;0.50;0.50;;;8.20;99.90;;;;;;6162542;23;19916;-79
2024/02/13 11:10:37;;;;;;;1.33;1.25;;;8.20;99.90;;;;;;6189603;23;20013;-80
2024/02/13 11:13:09;;;;;;;0.52;0.52;;;8.20;99.90;;;;;;6163333;23;20017;-81
2024/02/13 11:15:37;;;;;;;1.63;0.93;;;8.20;99.90;;;;;;6114693;23;20024;-81
2024/02/13 11:18:08;;;;;;;0.75;0.75;;;8.20;99.90;;;;;;6189438;23;20009;-80
2024/02/13 11:20:42;;;;;;;0.60;0.60;;;8.30;99.90;;;;;;6142512;23;20032;-81
2024/02/13 11:23:28;;;;;;;0.40;0.40;;;8.30;99.90;;;;;;6195691;23;20061;-80
2024/02/13 11:26:01;;;;;;;1.02;0.80;;;8.30;99.90;;;;;;6139911;23;20504;-80
2024/02/13 11:28:41;;;;;;;0.43;0.43;;;8.30;99.90;;;;;;6160630;23;20017;-80
2024/02/13 11:31:14;;;;;;;0.60;0.60;;;8.40;99.90;;;;;;6137593;23;20024;-82
2024/02/13 11:34:03;;;;;;;1.00;1.00;;;8.50;99.90;;;;;;6163844;23;20017;-79
2024/02/13 11:36:30;;;;;;;0.60;0.60;;;8.50;99.90;;;;;;6192164;23;20012;-79
2024/02/13 11:38:58;;;;;;;0.70;0.70;;;8.50;99.90;;;;;;6161729;23;20496;-81
2024/02/13 11:41:24;;;;;;;0.80;0.80;;;8.60;99.90;;;;;;6163945;23;20013;-79
2024/02/13 11:43:50;;;;;;;1.20;1.02;;;8.70;99.90;;;;;;6165882;23;20020;-81
2024/02/13 11:46:16;;;;;;;0.77;0.77;;;8.70;99.90;;;;;;6192250;23;20016;-79
2024/02/13 11:48:44;;;;;;;0.68;0.68;;;8.70;99.90;;;;;;6167913;23;20013;-80
2024/02/13 11:51:10;;;;;;;0.50;0.50;;;8.60;99.90;;;;;;6142865;23;20021;-80
2024/02/13 11:53:37;;;;;;;;;;;8.60;99.90;;;;;;6189228;23;20076;-80
2024/02/13 11:56:04;;;;;;;0.40;0.40;;;8.60;99.90;;;;;;6192192;23;19916;-79
2024/02/13 11:58:31;;;;;;;0.40;0.40;;;8.60;99.90;;;;;;6170989;23;20017;-81
2024/02/13 12:01:03;;;;;;;0.60;0.60;;;8.90;99.90;;;;;;6190466;23;20096;-81
2024/02/13 12:03:30;;;;;;;0.35;0.35;;;8.60;99.90;;;;;;6188418;23;20012;-80
2024/02/13 12:06:01;;;;;;;0.43;0.43;;;8.70;99.90;;;;;;6189728;23;20017;-81
2024/02/13 12:08:28;;;;;;;0.60;0.60;;;8.60;99.90;;;;;;6188708;23;20384;-81
2024/02/13 12:10:57;;;;;;;0.40;0.40;;;8.60;99.90;;;;;;6163620;23;20021;-80
2024/02/13 12:13:24;;;;;;;0.38;0.38;;;8.60;99.90;;;;;;6163682;23;20084;-80
2024/02/13 12:15:50;;;;;;;1.40;1.30;;;8.60;99.90;;;;;;6163748;23;20476;-80
2024/02/13 12:18:19;;;;;;;0.93;0.70;;;8.60;99.90;;;;;;6164285;23;20020;-81
2024/02/13 12:20:47;;;;;;;0.63;0.63;;;8.50;99.90;;;;;;6136059;23;20091;-80
2024/02/13 12:23:16;;;;;;;0.40;0.40;;;8.50;99.90;;;;;;6137084;23;20361;-80
2024/02/13 12:25:42;;;;;;;0.47;0.47;;;8.50;99.90;;;;;;6161323;23;20345;-80
2024/02/13 12:28:12;;;;;;;1.00;0.63;;;8.50;99.90;;;;;;6137851;23;20021;-81
2024/02/13 12:30:45;;;;;;;0.60;0.60;;;8.60;99.90;;;;;;6191952;23;20013;-80
2024/02/13 12:33:20;;;;;;;3.03;1.20;;;8.70;99.90;;;;;;6190294;23;20325;-80
2024/02/13 12:35:46;;;;;;;0.60;0.60;;;8.80;99.90;;;;;;6192226;23;20374;-80
2024/02/13 12:38:14;;;;;;;0.40;0.40;;;8.90;99.90;;;;;;6140454;23;20906;-81
2024/02/13 12:40:44;;;;;;;0.45;0.45;;;9.10;99.90;;;;;;6163046;23;20036;-80
2024/02/13 12:43:15;;;;;;;1.52;1.42;;;9.30;99.90;;;;;;6191328;23;20020;-81
2024/02/13 12:45:46;;;;;;;0.32;0.32;;;9.40;99.90;;;;;;6191067;23;20337;-81
2024/02/13 12:48:12;;;;;;;0.60;0.60;;;9.50;99.90;;;;;;6142899;23;20013;-82
2024/02/13 12:50:38;;;;;;;0.40;0.40;;;9.70;99.90;;;;;;6193373;23;20036;-81
2024/02/13 12:53:07;;;;;;;;;;;9.60;99.90;;;;;;6165599;23;20012;-79
2024/02/13 12:55:33;;;;;;;0.40;0.40;;;9.60;99.90;;;;;;6166550;23;20374;-79
2024/02/13 12:57:59;;;;;;;0.63;0.63;;;9.60;99.90;;;;;;6169470;23;20012;-80
2024/02/13 13:00:28;;;;;;;0.60;0.60;;;9.50;99.90;;;;;;6141164;23;20013;-81
2024/02/13 13:02:54;;;;;;;0.73;0.70;;;9.50;99.90;;;;;;6096246;23;20072;-81
2024/02/13 13:05:20;;;;;;;0.20;0.20;;;9.50;99.90;;;;;;6139786;23;20448;-82
2024/02/13 13:07:48;;;;;;;0.60;0.60;;;9.30;99.90;;;;;;6166749;23;20013;-83